Time;durP1;ratioP1;P1;durP2;ratioP2;P2;SDS_P1;SDS_P2;PMS_P1;PMS_P2;Temp;Humidity;BMP_temperature;BMP_pressure;BME280_temperature;BME280_humidity;BME280_pressure;Samples;Min_cycle;Max_cycle;Signal;HPM_P1;HPM_P2
2022/01/31 00:01:45;;;;;;;;;;;3.70;99.90;;;;;;4984842;28;19930;-65
2022/01/31 00:04:10;;;;;;;;;;;3.70;99.90;;;;;;5003707;28;19929;-63
2022/01/31 00:06:36;;;;;;;;;;;3.70;99.90;;;;;;4998811;28;19936;-67
2022/01/31 00:09:02;;;;;;;;;;;3.70;99.90;;;;;;4987584;28;19933;-73
2022/01/31 00:11:28;;;;;;;;;;;3.70;99.90;;;;;;4987869;28;19937;-56
2022/01/31 00:14:09;;;;;;;;;;;3.70;99.90;;;;;;4987525;28;19934;-56
2022/01/31 00:16:35;;;;;;;;;;;3.70;99.90;;;;;;4987722;28;19964;-56
2022/01/31 00:19:00;;;;;;;;;;;5.60;99.90;;;;;;4982795;28;20410;-56
2022/01/31 00:21:26;;;;;;;;;;;3.70;99.90;;;;;;4981743;28;19937;-57
2022/01/31 00:23:52;;;;;;;;;;;3.70;99.90;;;;;;4985781;28;20459;-57
2022/01/31 00:26:17;;;;;;;;;;;3.60;99.90;;;;;;4987191;28;19929;-59
2022/01/31 00:28:43;;;;;;;;;;;3.60;99.90;;;;;;4988663;28;19940;-56
2022/01/31 00:31:09;;;;;;;;;;;3.60;99.90;;;;;;5080920;28;19933;-57
2022/01/31 00:33:34;;;;;;;;;;;3.60;99.90;;;;;;5006206;28;19930;-57
2022/01/31 00:36:00;;;;;;;;;;;3.60;99.90;;;;;;5004926;28;19936;-58
2022/01/31 00:38:25;;;;;;;;;;;3.60;99.90;;;;;;5002355;28;20434;-58
2022/01/31 00:40:51;;;;;;;;;;;3.60;99.90;;;;;;4987466;28;19930;-57
2022/01/31 00:43:19;;;;;;;;;;;3.60;99.90;;;;;;4987786;28;19937;-56
2022/01/31 00:45:57;;;;;;;;;;;3.60;99.90;;;;;;4986803;28;19937;-58
2022/01/31 00:48:25;;;;;;;;;;;3.60;99.90;;;;;;4987322;28;19930;-60
2022/01/31 00:50:51;;;;;;;;;;;3.60;99.90;;;;;;4986812;28;20292;-57
2022/01/31 00:53:16;;;;;;;;;;;3.60;99.90;;;;;;4987499;28;19937;-57
2022/01/31 00:55:42;;;;;;;;;;;3.60;99.90;;;;;;4986793;28;20376;-57
2022/01/31 00:58:07;;;;;;;;;;;3.60;99.90;;;;;;4987211;28;19930;-57
2022/01/31 01:00:33;;;;;;;;;;;3.60;99.90;;;;;;4984479;28;19934;-57
2022/01/31 01:02:59;;;;;;;;;;;3.70;99.90;;;;;;4986892;28;19975;-57
2022/01/31 01:05:24;;;;;;;;;;;3.60;99.90;;;;;;4986619;28;20462;-59
2022/01/31 01:07:50;;;;;;;;;;;3.70;99.90;;;;;;4986341;28;20292;-56
2022/01/31 01:10:16;;;;;;;;;;;3.70;99.90;;;;;;4986745;28;20030;-57
2022/01/31 01:12:42;;;;;;;;;;;3.70;99.90;;;;;;4986270;28;19937;-56
2022/01/31 01:15:09;;;;;;;;;;;3.70;99.90;;;;;;4985967;28;19929;-59
2022/01/31 01:17:34;;;;;;;;;;;3.70;99.90;;;;;;4986400;28;19930;-59
2022/01/31 01:20:00;;;;;;;;;;;3.70;99.90;;;;;;4986336;28;19929;-63
2022/01/31 01:22:26;;;;;;;;;;;3.70;99.90;;;;;;4985262;28;19930;-58
2022/01/31 01:24:51;;;;;;;;;;;3.80;99.90;;;;;;4985190;28;19929;-61
2022/01/31 01:27:21;;;;;;;;;;;3.70;99.90;;;;;;4986760;28;19937;-62
2022/01/31 01:29:47;;;;;;;;;;;3.70;99.90;;;;;;4986632;28;19930;-62
2022/01/31 01:32:13;;;;;;;;;;;3.70;99.90;;;;;;4986074;28;19929;-61
2022/01/31 01:34:39;;;;;;;;;;;3.70;99.90;;;;;;4984217;28;19952;-60
2022/01/31 01:37:04;;;;;;;;;;;4.20;99.90;;;;;;4967150;28;20364;-77
2022/01/31 01:39:31;;;;;;;;;;;3.70;99.90;;;;;;4979355;28;19930;-73
2022/01/31 01:41:56;;;;;;;;;;;3.70;99.90;;;;;;4986681;28;19976;-62
2022/01/31 01:44:38;;;;;;;;;;;3.70;99.90;;;;;;4986710;28;20390;-60
2022/01/31 01:47:04;;;;;;;;;;;3.70;99.90;;;;;;4985960;28;20012;-62
2022/01/31 01:49:29;;;;;;;;;;;3.60;99.90;;;;;;4986351;28;20017;-60
2022/01/31 01:51:55;;;;;;;;;;;3.60;99.90;;;;;;4986495;28;19969;-64
2022/01/31 01:54:20;;;;;;;;;;;3.60;99.90;;;;;;4968776;28;19931;-67
2022/01/31 01:56:46;;;;;;;;;;;3.60;99.90;;;;;;4986239;28;19975;-60
2022/01/31 01:59:11;;;;;;;;;;;3.60;99.90;;;;;;4985739;28;19936;-57
2022/01/31 02:01:37;;;;;;;;;;;3.60;99.90;;;;;;4985940;28;19981;-57
2022/01/31 02:04:02;;;;;;;;;;;3.60;99.90;;;;;;4986366;28;19973;-56
2022/01/31 02:06:28;;;;;;;;;;;3.50;99.90;;;;;;4998563;28;20368;-58
2022/01/31 02:08:54;;;;;;;;;;;3.50;99.90;;;;;;5005659;28;20002;-57
2022/01/31 02:11:20;;;;;;;;;;;3.40;99.90;;;;;;5001639;28;20424;-57
2022/01/31 02:13:46;;;;;;;;;;;3.50;99.90;;;;;;4986079;28;19930;-57
2022/01/31 02:16:11;;;;;;;;;;;3.50;99.90;;;;;;4985776;28;20295;-56
2022/01/31 02:18:44;;;;;;;;;;;3.40;99.90;;;;;;4986439;28;19936;-56
2022/01/31 02:21:10;;;;;;;;;;;3.30;99.90;;;;;;4982014;28;20264;-57
2022/01/31 02:23:36;;;;;;;;;;;3.30;99.90;;;;;;4985578;28;20294;-57
2022/01/31 02:26:04;;;;;;;;;;;3.30;99.90;;;;;;4985364;28;20048;-57
2022/01/31 02:28:30;;;;;;;;;;;3.40;99.90;;;;;;4985391;28;20001;-57
2022/01/31 02:30:57;;;;;;;;;;;3.30;99.90;;;;;;4985778;28;20294;-57
2022/01/31 02:33:23;;;;;;;;;;;3.20;99.90;;;;;;4986419;28;19929;-58
2022/01/31 02:35:49;;;;;;;;;;;3.20;99.90;;;;;;5043363;28;20366;-57
2022/01/31 02:38:15;;;;;;;;;;;3.20;99.90;;;;;;5055897;28;19933;-56
2022/01/31 02:40:40;;;;;;;;;;;3.10;99.90;;;;;;4985710;28;19925;-57
2022/01/31 02:43:06;;;;;;;;;;;3.10;99.90;;;;;;4985509;28;20272;-56
2022/01/31 02:45:31;;;;;;;;;;;3.10;99.90;;;;;;4984879;28;19937;-56
2022/01/31 02:47:59;;;;;;;;;;;3.10;99.90;;;;;;4985749;28;19930;-57
2022/01/31 02:50:25;;;;;;;;;;;3.10;99.90;;;;;;4984473;28;19929;-61
2022/01/31 02:53:00;;;;;;;;;;;3.10;99.90;;;;;;4975869;28;20053;-58
2022/01/31 02:55:25;;;;;;;;;;;3.10;99.90;;;;;;4984995;28;19930;-59
2022/01/31 02:57:51;;;;;;;;;;;3.10;99.90;;;;;;4986356;28;19929;-57
2022/01/31 03:00:17;;;;;;;;;;;3.10;99.90;;;;;;4988811;28;19929;-56
2022/01/31 03:02:42;;;;;;;;;;;3.10;99.90;;;;;;4988852;28;19936;-56
2022/01/31 03:05:08;;;;;;;;;;;4.30;99.90;;;;;;4990570;28;20517;-57
2022/01/31 03:07:34;;;;;;;;;;;3.10;99.90;;;;;;5007969;28;19933;-62
2022/01/31 03:10:00;;;;;;;;;;;3.10;99.90;;;;;;5007964;28;20032;-58
2022/01/31 03:12:26;;;;;;;;;;;3.10;99.90;;;;;;4992276;28;19975;-57
2022/01/31 03:14:51;;;;;;;;;;;3.80;99.90;;;;;;4988182;28;19933;-57
2022/01/31 03:17:17;;;;;;;;;;;3.10;99.90;;;;;;4988827;28;20006;-56
2022/01/31 03:19:42;;;;;;;;;;;3.20;99.90;;;;;;4988627;28;20354;-60
2022/01/31 03:22:08;;;;;;;;;;;3.20;99.90;;;;;;4988519;28;19977;-57
2022/01/31 03:24:34;;;;;;;;;;;3.20;99.90;;;;;;4988459;28;20387;-56
2022/01/31 03:26:59;;;;;;;;;;;3.20;99.90;;;;;;4987892;28;19937;-58
2022/01/31 03:29:25;;;;;;;;;;;3.20;99.90;;;;;;4987855;28;20349;-56
2022/01/31 03:31:51;;;;;;;;;;;3.20;99.90;;;;;;4988055;28;19929;-56
2022/01/31 03:34:16;;;;;;;;;;;3.20;99.90;;;;;;4988033;28;19952;-60
2022/01/31 03:36:43;;;;;;;;;;;3.20;99.90;;;;;;4987521;28;19930;-56
2022/01/31 03:39:08;;;;;;;;;;;3.70;99.90;;;;;;4988264;28;19963;-57
2022/01/31 03:41:34;;;;;;;;;;;3.60;99.90;;;;;;4987314;28;19930;-56
2022/01/31 03:43:59;;;;;;;;;;;3.30;99.90;;;;;;4988466;28;19936;-57
2022/01/31 03:46:25;;;;;;;;;;;3.40;99.90;;;;;;4987983;28;20299;-57
2022/01/31 03:48:51;;;;;;;;;;;3.40;99.90;;;;;;4971355;28;19961;-57
2022/01/31 03:51:16;;;;;;;;;;;3.40;99.90;;;;;;4968543;28;19930;-59
2022/01/31 03:53:42;;;;;;;;;;;3.50;99.90;;;;;;4968685;28;19930;-68
2022/01/31 03:56:07;;;;;;;;;;;3.50;99.90;;;;;;4968563;28;19990;-61
2022/01/31 03:58:33;;;;;;;;;;;3.50;99.90;;;;;;4969153;28;19941;-65
2022/01/31 04:00:59;;;;;;;;;;;3.60;99.90;;;;;;4975954;28;19934;-61
2022/01/31 04:03:24;;;;;;;;;;;3.60;99.90;;;;;;4999770;28;19990;-67
2022/01/31 04:05:50;;;;;;;;;;;3.60;99.90;;;;;;5045763;28;19930;-62
2022/01/31 04:08:15;;;;;;;;;;;3.70;99.90;;;;;;5007329;28;19936;-63
2022/01/31 04:10:41;;;;;;;;;;;3.70;99.90;;;;;;5007292;28;19929;-57
2022/01/31 04:13:06;;;;;;;;;;;3.70;99.90;;;;;;5007178;28;19935;-56
2022/01/31 04:15:33;;;;;;;;;;;3.80;99.90;;;;;;5007223;28;19929;-56
2022/01/31 04:17:59;;;;;;;;;;;3.90;99.90;;;;;;5007378;28;19974;-67
2022/01/31 04:20:24;;;;;;;;;;;4.10;99.90;;;;;;5002215;28;20413;-56
2022/01/31 04:22:56;;;;;;;;;;;4.20;99.90;;;;;;4987340;28;19935;-65
2022/01/31 04:25:42;;;;;;;;;;;4.40;99.90;;;;;;4987561;28;20026;-63
2022/01/31 04:28:17;;;;;;;;;;;4.40;99.90;;;;;;4987708;28;20304;-57
2022/01/31 04:30:50;;;;;;;;;;;4.50;99.90;;;;;;4987166;28;19929;-72
2022/01/31 04:33:16;;;;;;;;;;;4.60;99.90;;;;;;4987395;28;19929;-63
2022/01/31 04:35:41;;;;;;;;;;;5.20;99.90;;;;;;4985289;28;19952;-69
2022/01/31 04:38:07;;;;;;;;;;;4.70;99.90;;;;;;4969374;28;19937;-73
2022/01/31 04:40:32;;;;;;;;;;;4.70;99.90;;;;;;4987431;28;19930;-69
2022/01/31 04:42:58;;;;;;;;;;;5.40;99.90;;;;;;4986558;28;19930;-65
2022/01/31 04:45:24;;;;;;;;;;;4.70;99.90;;;;;;4986711;28;20375;-69
2022/01/31 04:47:49;;;;;;;;;;;4.70;99.90;;;;;;4967700;28;19937;-74
2022/01/31 04:50:15;;;;;;;;;;;4.70;99.90;;;;;;4975358;28;19930;-75
2022/01/31 04:52:42;;;;;;;;;;;4.70;99.90;;;;;;4986795;28;19953;-70
2022/01/31 04:55:09;;;;;;;;;;;4.70;99.90;;;;;;4987172;28;19929;-60
2022/01/31 04:57:35;;;;;;;;;;;4.70;99.90;;;;;;4986627;28;20391;-57
2022/01/31 05:00:00;;;;;;;;;;;5.20;99.90;;;;;;4986121;28;19936;-62
2022/01/31 05:02:26;;;;;;;;;;;4.70;99.90;;;;;;4981710;28;19929;-58
2022/01/31 05:04:52;;;;;;;;;;;4.70;99.90;;;;;;4986781;28;19969;-56
2022/01/31 05:07:17;;;;;;;;;;;4.70;99.90;;;;;;4991800;28;20337;-56
2022/01/31 05:09:44;;;;;;;;;;;4.70;99.90;;;;;;5059425;28;20341;-65
2022/01/31 05:12:10;;;;;;;;;;;4.70;99.90;;;;;;5050858;28;19929;-57
2022/01/31 05:14:36;;;;;;;;;;;4.70;99.90;;;;;;4986698;28;19982;-57
2022/01/31 05:17:01;;;;;;;;;;;4.70;99.90;;;;;;4985666;28;19930;-56
2022/01/31 05:19:27;;;;;;;;;;;4.70;99.90;;;;;;4985975;28;20304;-56
2022/01/31 05:21:52;;;;;;;;;;;4.70;99.90;;;;;;4985876;28;20333;-56
2022/01/31 05:24:18;;;;;;;;;;;4.70;99.90;;;;;;4986636;28;20295;-56
2022/01/31 05:26:43;;;;;;;;;;;4.70;99.90;;;;;;4986524;28;20095;-57
2022/01/31 05:29:09;;;;;;;;;;;4.70;99.90;;;;;;4986250;28;20356;-57
2022/01/31 05:31:34;;;;;;;;;;;4.70;99.90;;;;;;4986886;28;20382;-59
2022/01/31 05:34:00;;;;;;;;;;;4.70;99.90;;;;;;4986309;28;19930;-58
2022/01/31 05:36:25;;;;;;;;;;;4.70;99.90;;;;;;4986273;28;19930;-57
2022/01/31 05:38:51;;;;;;;;;;;4.70;99.90;;;;;;4986428;28;20029;-57
2022/01/31 05:41:19;;;;;;;;;;;4.60;99.90;;;;;;4986806;28;20471;-59
2022/01/31 05:43:45;;;;;;;;;;;4.60;99.90;;;;;;4986364;28;19965;-56
2022/01/31 05:46:11;;;;;;;;;;;4.60;99.90;;;;;;4986440;28;19930;-56
2022/01/31 05:48:36;;;;;;;;;;;4.50;99.90;;;;;;4986265;28;19991;-56
2022/01/31 05:51:02;;;;;;;;;;;4.50;99.90;;;;;;4986168;28;20016;-57
2022/01/31 05:53:30;;;;;;;;;;;4.90;99.90;;;;;;4985909;28;20770;-57
2022/01/31 05:55:56;;;;;;;;;;;4.40;99.90;;;;;;4986360;28;19929;-56
2022/01/31 05:58:22;;;;;;;;;;;4.40;99.90;;;;;;4986063;28;19980;-57
2022/01/31 06:00:47;;;;;;;;;;;4.40;99.90;;;;;;4982766;28;19977;-57
2022/01/31 06:03:13;;;;;;;;;;;4.40;99.90;;;;;;4990106;28;19954;-57
2022/01/31 06:05:39;;;;;;;;;;;4.40;99.90;;;;;;5048653;28;19930;-60
2022/01/31 06:08:04;;;;;;;;;;;4.30;99.90;;;;;;4986603;28;20250;-57
2022/01/31 06:10:31;;;;;;;;;;;4.40;99.90;;;;;;4986441;28;19983;-57
2022/01/31 06:12:57;;;;;;;;;;;4.30;99.90;;;;;;4985249;28;20747;-56
2022/01/31 06:15:23;;;;;;;;;;;4.50;99.90;;;;;;4981039;28;20376;-56
2022/01/31 06:17:48;;;;;;;;;;;4.30;99.90;;;;;;5016942;28;19925;-60
2022/01/31 06:20:14;;;;;;;;;;;4.40;99.90;;;;;;5066984;28;19929;-57
2022/01/31 06:22:44;;;;;;;;;;;4.30;99.90;;;;;;4984571;28;19983;-57
2022/01/31 06:25:11;;;;;;;;;;;4.30;99.90;;;;;;4992194;28;20405;-56
2022/01/31 06:27:37;;;;;;;;;;;4.30;99.90;;;;;;5042741;28;19936;-57
2022/01/31 06:30:03;;;;;;;;;;;4.30;99.90;;;;;;4977086;28;20314;-56
2022/01/31 06:32:28;;;;;;;;;;;4.30;99.90;;;;;;4980654;28;20021;-58
2022/01/31 06:34:55;;;;;;;;;;;4.30;99.90;;;;;;5051114;28;20018;-62
2022/01/31 06:37:21;;;;;;;;;;;4.30;99.90;;;;;;5058446;28;19936;-61
2022/01/31 06:39:46;;;;;;;;;;;4.30;99.90;;;;;;4988878;28;19930;-63
2022/01/31 06:42:12;;;;;;;;;;;4.30;99.90;;;;;;4983954;28;20401;-62
2022/01/31 06:44:39;;;;;;;;;;;4.30;99.90;;;;;;4969325;28;19934;-62
2022/01/31 06:47:05;;;;;;;;;;;4.30;99.90;;;;;;4976426;28;20004;-59
2022/01/31 06:49:30;;;;;;;;;;;4.30;99.90;;;;;;4988681;28;19967;-58
2022/01/31 06:51:56;;;;;;;;;;;4.30;99.90;;;;;;4985875;28;19930;-57
2022/01/31 06:54:22;;;;;;;;;;;4.30;99.90;;;;;;4969153;28;20280;-58
2022/01/31 06:56:48;;;;;;;;;;;4.40;99.90;;;;;;4969136;28;19930;-57
2022/01/31 06:59:13;;;;;;;;;;;4.40;99.90;;;;;;4986864;28;20303;-61
2022/01/31 07:01:39;;;;;;;;;;;4.40;99.90;;;;;;4985527;28;19929;-63
2022/01/31 07:04:04;;;;;;;;;;;4.40;99.90;;;;;;4986934;28;19936;-61
2022/01/31 07:06:30;;;;;;;;;;;4.40;99.90;;;;;;4993753;28;19929;-62
2022/01/31 07:08:58;;;;;;;;;;;4.50;99.90;;;;;;4986674;28;19929;-59
2022/01/31 07:11:26;;;;;;;;;;;4.40;99.90;;;;;;4985816;28;19934;-60
2022/01/31 07:14:04;;;;;;;;;;;4.40;99.90;;;;;;4985473;28;20295;-64
2022/01/31 07:16:30;;;;;;;;;;;4.50;99.90;;;;;;4975246;28;20041;-64
2022/01/31 07:19:05;;;;;;;;;;;4.50;99.90;;;;;;4979434;28;20097;-57
2022/01/31 07:21:47;;;;;;;;;;;4.50;99.90;;;;;;4976718;28;19936;-57
2022/01/31 07:26:44;;;;;;;;;;;4.50;99.90;;;;;;4984392;28;20299;-57
2022/01/31 07:29:10;;;;;;;;;;;4.50;99.90;;;;;;4984504;28;19929;-62
2022/01/31 07:31:36;;;;;;;;;;;4.50;99.90;;;;;;5001575;28;19935;-58
2022/01/31 07:34:02;;;;;;;;;;;4.50;99.90;;;;;;4995119;28;19937;-59
2022/01/31 07:36:28;;;;;;;;;;;4.60;99.90;;;;;;4988055;28;20458;-58
2022/01/31 07:38:54;;;;;;;;;;;4.60;99.90;;;;;;4983472;28;20028;-59
2022/01/31 07:41:19;;;;;;;;;;;4.60;99.90;;;;;;4986772;28;20351;-56
2022/01/31 07:43:45;;;;;;;;;;;4.60;99.90;;;;;;4987188;28;20305;-56
2022/01/31 07:46:14;;;;;;;;;;;4.60;99.90;;;;;;4986857;28;20423;-56
2022/01/31 07:48:40;;;;;;;;;;;4.70;99.90;;;;;;4980814;28;20237;-56
2022/01/31 07:51:05;;;;;;;;;;;4.70;99.90;;;;;;4985773;28;19965;-63
2022/01/31 07:53:32;;;;;;;;;;;4.60;99.90;;;;;;4983422;28;20636;-57
2022/01/31 07:56:00;;;;;;;;;;;4.60;99.90;;;;;;4985029;28;20021;-56
2022/01/31 07:58:25;;;;;;;;;;;4.70;99.90;;;;;;4986004;28;19930;-64
2022/01/31 08:00:51;;;;;;;;;;;4.70;99.90;;;;;;5006149;28;19930;-66
2022/01/31 08:03:16;;;;;;;;;;;4.80;99.90;;;;;;4973725;28;19936;-60
2022/01/31 08:05:42;;;;;;;;;;;4.70;99.90;;;;;;4996172;28;19937;-63
2022/01/31 08:08:08;;;;;;;;;;;4.80;99.90;;;;;;5040658;28;19930;-61
2022/01/31 08:10:36;;;;;;;;;;;4.80;99.90;;;;;;4981038;28;20326;-60
2022/01/31 08:13:04;;;;;;;;;;;4.80;99.90;;;;;;4980748;28;20037;-61
2022/01/31 08:15:30;;;;;;;;;;;4.90;99.90;;;;;;4978647;28;19938;-60
2022/01/31 08:17:56;;;;;;;;;;;4.90;99.90;;;;;;4969525;28;19930;-63
2022/01/31 08:20:21;;;;;;;;;;;5.00;99.90;;;;;;4973373;28;19936;-60
2022/01/31 08:22:47;;;;;;;;;;;5.00;99.90;;;;;;4978141;28;19930;-57
2022/01/31 08:25:15;;;;;;;;;;;5.00;99.90;;;;;;4980539;28;19930;-63
2022/01/31 08:27:42;;;;;;;;;;;5.00;99.90;;;;;;4981389;28;20453;-63
2022/01/31 08:30:12;;;;;;;;;;;5.10;99.90;;;;;;4997472;28;19983;-60
2022/01/31 08:32:45;;;;;;;;;;;5.10;99.90;;;;;;4986380;28;19930;-61
2022/01/31 08:37:55;;;;;;;;;;;5.20;99.90;;;;;;4984350;28;19930;-63
2022/01/31 08:40:21;;;;;;;;;;;5.30;99.90;;;;;;4984792;28;20285;-64
2022/01/31 08:42:47;;;;;;;;;;;5.40;99.90;;;;;;4977268;28;20295;-57
2022/01/31 08:45:13;;;;;;;;;;;5.50;99.90;;;;;;4981968;28;20007;-57
2022/01/31 08:47:41;;;;;;;;;;;5.40;99.90;;;;;;4986551;28;19930;-57
2022/01/31 08:50:10;;;;;;;;;;;5.50;99.90;;;;;;4984874;28;19937;-57
2022/01/31 08:52:36;;;;;;;;;;;5.60;99.90;;;;;;4997332;28;19942;-57
2022/01/31 08:55:01;;;;;;;;;;;5.60;99.90;;;;;;4983004;28;19934;-57
2022/01/31 08:57:27;;;;;;;;;;;7.10;99.90;;;;;;5004137;28;20342;-58
2022/01/31 08:59:53;;;;;;;;;;;5.70;99.90;;;;;;4986577;28;20379;-56
2022/01/31 09:02:26;;;;;;;;;;;5.70;99.90;;;;;;4980949;28;20016;-56
2022/01/31 09:04:52;;;;;;;;;;;5.70;99.90;;;;;;4982666;28;19936;-57
2022/01/31 09:07:19;;;;;;;;;;;5.70;99.90;;;;;;4992421;28;20031;-57
2022/01/31 09:09:49;;;;;;;;;;;5.70;99.90;;;;;;4981530;28;19937;-60
2022/01/31 09:12:16;;;;;;;;;;;5.90;99.90;;;;;;4983250;28;19936;-60
2022/01/31 09:14:42;;;;;;;;;;;5.90;99.90;;;;;;4982729;28;20009;-58
2022/01/31 09:17:08;;;;;;;;;;;5.90;99.90;;;;;;5012554;28;20082;-57
2022/01/31 09:19:33;;;;;;;;;;;6.00;99.90;;;;;;4986039;28;19934;-59
2022/01/31 09:22:01;;;;;;;;;;;6.00;99.90;;;;;;5015616;28;19937;-57
2022/01/31 09:24:27;;;;;;;;;;;6.50;99.90;;;;;;4985305;28;19930;-56
2022/01/31 09:26:53;;;;;;;;;;;6.20;99.90;;;;;;5002844;28;20013;-59
2022/01/31 09:29:19;;;;;;;;;;;6.20;99.90;;;;;;4985262;28;20366;-61
2022/01/31 09:31:44;;;;;;;;;;;6.10;99.90;;;;;;4995646;28;20766;-58
2022/01/31 09:34:11;;;;;;;;;;;6.10;99.90;;;;;;4983941;28;20016;-58
2022/01/31 09:36:36;;;;;;;;;;;6.10;99.90;;;;;;4979884;28;20379;-61
2022/01/31 09:39:02;;;;;;;;;;;6.10;99.90;;;;;;4984035;28;19975;-62
2022/01/31 09:41:30;;;;;;;;;;;6.10;99.90;;;;;;4981848;28;19933;-57
2022/01/31 09:44:09;;;;;;;;;;;6.20;99.90;;;;;;4983963;28;19936;-63
2022/01/31 09:49:16;;;;;;;;;;;6.40;99.90;;;;;;4982393;28;20341;-60
2022/01/31 09:51:42;;;;;;;;;;;6.50;99.90;;;;;;4982232;28;19961;-59
2022/01/31 09:54:07;;;;;;;;;;;6.70;99.90;;;;;;4984064;28;20657;-57
2022/01/31 09:56:35;;;;;;;;;;;6.80;99.90;;;;;;4982888;28;20297;-62
2022/01/31 09:59:02;;;;;;;;;;;7.20;99.90;;;;;;4982161;28;20510;-58
2022/01/31 10:01:40;;;;;;;;;;;7.00;99.90;;;;;;4982884;28;19983;-61
2022/01/31 10:04:16;;;;;;;;;;;7.00;99.90;;;;;;4981005;28;20315;-56
2022/01/31 10:06:43;;;;;;;;;;;7.00;99.90;;;;;;4980696;28;19953;-57
2022/01/31 10:09:13;;;;;;;;;;;7.20;99.90;;;;;;4978074;28;19929;-57
2022/01/31 10:11:45;;;;;;;;;;;7.30;99.90;;;;;;4978167;28;19930;-60
2022/01/31 10:16:56;;;;;;;;;;;7.30;99.90;;;;;;4978969;28;19937;-57
2022/01/31 10:19:22;;;;;;;;;;;7.30;99.90;;;;;;4968825;28;19930;-58
2022/01/31 10:22:02;;;;;;;;;;;7.60;99.90;;;;;;4984113;28;19930;-58
2022/01/31 10:24:29;;;;;;;;;;;7.40;99.90;;;;;;5006725;28;19934;-57
2022/01/31 10:26:54;;;;;;;;;;;7.50;99.90;;;;;;4987829;28;19941;-56
2022/01/31 10:29:21;;;;;;;;;;;7.60;99.90;;;;;;5026839;28;19928;-59
2022/01/31 10:31:53;;;;;;;;;;;7.70;99.90;;;;;;5052139;28;20337;-62
2022/01/31 10:34:20;;;;;;;;;;;7.70;99.90;;;;;;4985244;28;19930;-57
2022/01/31 10:36:45;;;;;;;;;;;7.80;99.90;;;;;;4982853;28;19968;-57
2022/01/31 10:39:15;;;;;;;;;;;8.00;99.90;;;;;;4984843;28;19987;-59
2022/01/31 10:53:00;;;;;;;;;;;8.40;99.90;;;;;;4979795;28;20647;-57
2022/01/31 10:55:26;;;;;;;;;;;8.40;99.90;;;;;;4975178;28;19934;-58
2022/01/31 10:58:02;;;;;;;;;;;8.40;99.90;;;;;;4977629;28;20383;-58
2022/01/31 11:00:37;;;;;;;;;;;8.40;99.90;;;;;;4983916;28;20013;-58
2022/01/31 11:03:22;;;;;;;;;;;8.50;99.90;;;;;;4983757;28;20382;-58
2022/01/31 11:05:50;;;;;;;;;;;8.60;99.90;;;;;;4979589;28;20024;-56
2022/01/31 11:08:16;;;;;;;;;;;8.70;99.90;;;;;;4983408;28;19930;-57
2022/01/31 11:10:42;;;;;;;;;;;8.80;99.90;;;;;;4981575;28;19934;-57
2022/01/31 11:13:09;;;;;;;;;;;8.80;99.90;;;;;;4975565;28;19926;-57
2022/01/31 11:15:36;;;;;;;;;;;9.00;99.90;;;;;;4983323;28;19934;-57
2022/01/31 11:18:02;;;;;;;;;;;9.20;99.90;;;;;;4977982;28;19937;-57
2022/01/31 11:20:28;;;;;;;;;;;9.10;99.90;;;;;;4975159;28;19929;-57
2022/01/31 11:22:57;;;;;;;;;;;9.10;99.90;;;;;;4988131;28;20060;-57
2022/01/31 11:25:26;;;;;;;;;;;9.10;99.90;;;;;;4985019;28;19941;-57
2022/01/31 11:27:53;;;;;;;;;;;8.80;99.90;;;;;;4978535;28;19933;-57
2022/01/31 11:30:19;;;;;;;;;;;8.60;99.90;;;;;;4986996;28;20362;-58
2022/01/31 11:32:46;;;;;;;;;;;8.40;99.90;;;;;;4985412;28;20012;-57
2022/01/31 11:35:11;;;;;;;;;;;8.40;99.90;;;;;;4983468;28;19930;-59
2022/01/31 11:37:37;;;;;;;;;;;8.70;99.90;;;;;;4978388;28;20442;-61
2022/01/31 11:40:05;;;;;;;;;;;8.90;99.90;;;;;;4982899;28;20359;-62
2022/01/31 11:42:31;;;;;;;;;;;8.90;99.90;;;;;;4979811;28;19941;-60
2022/01/31 11:44:59;;;;;;;;;;;9.10;99.90;;;;;;4973589;28;19930;-63
2022/01/31 11:47:27;;;;;;;;;;;8.90;99.90;;;;;;4977402;28;19941;-63
2022/01/31 11:49:56;;;;;;;;;;;9.20;99.90;;;;;;4980173;28;19937;-57
2022/01/31 11:52:23;;;;;;;;;;;8.90;99.90;;;;;;4983852;28;19994;-57
2022/01/31 11:54:50;;;;;;;;;;;9.30;99.90;;;;;;4979429;28;20254;-58
2022/01/31 11:57:20;;;;;;;;;;;8.90;99.90;;;;;;4982227;28;19937;-57
2022/01/31 12:00:06;;;;;;;;;;;8.80;99.90;;;;;;4982666;28;19930;-57
2022/01/31 12:02:32;;;;;;;;;;;8.80;99.90;;;;;;4981277;28;20028;-57
2022/01/31 12:05:03;;;;;;;;;;;8.70;99.90;;;;;;4983228;28;19937;-57
2022/01/31 12:07:38;;;;;;;;;;;8.80;99.90;;;;;;4979619;28;20383;-58
2022/01/31 12:10:05;;;;;;;;;;;9.00;99.90;;;;;;4983040;28;20417;-57
2022/01/31 12:12:57;;;;;;;;;;;8.90;99.90;;;;;;4980897;28;19929;-61
2022/01/31 12:23:40;;;;;;;;;;;8.60;99.90;;;;;;4982751;28;20097;-57
2022/01/31 12:26:25;;;;;;;;;;;9.00;99.90;;;;;;4983908;28;20034;-58
2022/01/31 12:28:54;;;;;;;;;;;8.80;99.90;;;;;;4972532;28;19976;-61
2022/01/31 12:31:43;;;;;;;;;;;8.70;99.90;;;;;;4985751;28;19934;-58
2022/01/31 12:34:29;;;;;;;;;;;8.80;99.90;;;;;;4986298;28;20193;-57
2022/01/31 12:36:56;;;;;;;;;;;8.80;99.90;;;;;;4982602;28;19934;-59
2022/01/31 12:42:02;;;;;;;;;;;9.10;99.90;;;;;;4982652;28;19936;-58
2022/01/31 12:44:34;;;;;;;;;;;9.00;99.90;;;;;;4981110;28;19929;-57
2022/01/31 12:47:16;;;;;;;;;;;8.80;99.90;;;;;;4980991;28;20379;-57
2022/01/31 12:49:42;;;;;;;;;;;8.80;99.90;;;;;;4969446;28;19929;-60
2022/01/31 12:52:08;;;;;;;;;;;8.90;99.90;;;;;;4981986;28;20275;-57
2022/01/31 12:54:36;;;;;;;;;;;9.00;99.90;;;;;;4977904;28;20013;-57
2022/01/31 12:57:03;;;;;;;;;;;9.10;99.90;;;;;;5016190;28;20405;-57
2022/01/31 12:59:29;;;;;;;;;;;9.40;99.90;;;;;;4969038;28;20300;-60
2022/01/31 13:01:55;;;;;;;;;;;9.60;99.90;;;;;;4979769;28;20389;-57
2022/01/31 13:04:25;;;;;;;;;;;9.60;99.90;;;;;;4981962;28;19930;-57
2022/01/31 13:06:51;;;;;;;;;;;9.40;99.90;;;;;;4965433;28;19998;-57
2022/01/31 13:09:24;;;;;;;;;;;9.40;99.90;;;;;;4979118;28;19936;-57
2022/01/31 13:12:12;;;;;;;;;;;9.50;99.90;;;;;;4992831;28;19930;-57
2022/01/31 13:14:40;;;;;;;;;;;9.50;99.90;;;;;;4980097;28;19937;-57
2022/01/31 13:17:09;;;;;;;;;;;9.30;99.90;;;;;;4974345;28;19977;-63
2022/01/31 13:19:36;;;;;;;;;;;9.20;99.90;;;;;;4974923;28;19941;-58
2022/01/31 13:22:03;;;;;;;;;;;8.80;99.90;;;;;;4977631;28;20268;-57
2022/01/31 13:24:37;;;;;;;;;;;8.70;99.90;;;;;;4973139;28;20363;-57
2022/01/31 13:27:06;;;;;;;;;;;8.70;99.90;;;;;;4973242;28;20418;-65
2022/01/31 13:29:33;;;;;;;;;;;8.70;99.90;;;;;;4974468;28;19952;-62
2022/01/31 13:32:11;;;;;;;;;;;8.60;99.90;;;;;;4974599;28;20304;-58
2022/01/31 13:34:41;;;;;;;;;;;8.40;99.90;;;;;;4973103;28;20516;-58
2022/01/31 13:37:25;;;;;;;;;;;8.40;99.90;;;;;;4976542;28;19930;-58
2022/01/31 13:39:53;;;;;;;;;;;8.30;99.90;;;;;;4972685;28;19983;-57
2022/01/31 13:42:27;;;;;;;;;;;8.10;99.90;;;;;;4974316;28;19926;-58
2022/01/31 13:44:55;;;;;;;;;;;8.20;99.90;;;;;;4973019;28;19930;-56
2022/01/31 13:47:37;;;;;;;;;;;8.20;99.90;;;;;;4975872;28;19964;-57
2022/01/31 13:50:13;;;;;;;;;;;8.10;99.90;;;;;;4980564;28;20388;-56
2022/01/31 13:52:52;;;;;;;;;;;8.10;99.90;;;;;;4976495;28;20302;-56
2022/01/31 13:55:17;;;;;;;;;;;8.10;99.90;;;;;;4979363;28;19934;-56
2022/01/31 13:57:43;;;;;;;;;;;8.00;99.90;;;;;;4995314;28;19929;-56
2022/01/31 14:00:09;;;;;;;;;;;7.90;99.90;;;;;;4995447;28;19938;-56
2022/01/31 14:02:37;;;;;;;;;;;7.90;99.90;;;;;;4987313;28;19929;-56
2022/01/31 14:05:16;;;;;;;;;;;7.90;99.90;;;;;;4982566;28;20009;-56
2022/01/31 14:07:42;;;;;;;;;;;8.00;99.90;;;;;;4989663;28;19930;-56
2022/01/31 14:10:27;;;;;;;;;;;8.10;99.90;;;;;;4982572;28;19937;-63
2022/01/31 14:13:00;;;;;;;;;;;8.00;99.90;;;;;;4980331;28;20392;-59
2022/01/31 14:15:25;;;;;;;;;;;7.90;99.90;;;;;;4975979;28;19934;-61
2022/01/31 14:17:51;;;;;;;;;;;7.80;99.90;;;;;;4982271;28;20353;-58
2022/01/31 14:20:17;;;;;;;;;;;8.00;99.90;;;;;;4979948;28;19934;-64
2022/01/31 14:22:42;;;;;;;;;;;7.60;99.90;;;;;;4978025;28;20009;-63
2022/01/31 14:25:09;;;;;;;;;;;7.50;99.90;;;;;;5001198;28;20061;-61
2022/01/31 14:27:34;;;;;;;;;;;7.50;99.90;;;;;;4980964;28;19941;-60
2022/01/31 14:30:00;;;;;;;;;;;7.40;99.90;;;;;;4980166;28;19930;-60
2022/01/31 14:32:30;;;;;;;;;;;7.30;99.90;;;;;;4984025;28;20482;-61
2022/01/31 14:34:59;;;;;;;;;;;7.20;99.90;;;;;;4981685;28;20364;-68
2022/01/31 14:37:31;;;;;;;;;;;7.30;99.90;;;;;;4978433;28;19975;-66
2022/01/31 14:40:21;;;;;;;;;;;7.20;99.90;;;;;;4971050;28;20257;-64
2022/01/31 14:47:12;;;;;;;;;;;7.20;99.90;;;;;;4975397;28;19968;-57
2022/01/31 14:48:52;;;;;;;;;;;7.00;99.90;;;;;;4994077;28;20022;-57
2022/01/31 14:51:25;;;;;;;;;;;6.90;99.90;;;;;;4984258;28;19929;-57
2022/01/31 14:53:55;;;;;;;;;;;6.80;99.90;;;;;;4988486;28;19976;-57
2022/01/31 14:56:20;;;;;;;;;;;6.70;99.90;;;;;;4997467;28;19930;-57
2022/01/31 14:58:46;;;;;;;;;;;6.70;99.90;;;;;;4980964;28;19930;-60
2022/01/31 15:01:11;;;;;;;;;;;6.70;99.90;;;;;;4984541;28;19936;-59
2022/01/31 15:03:38;;;;;;;;;;;6.50;99.90;;;;;;4985919;28;19930;-64
2022/01/31 15:06:04;;;;;;;;;;;6.70;99.90;;;;;;4976974;28;20281;-57
2022/01/31 15:08:29;;;;;;;;;;;6.70;99.90;;;;;;4985064;28;19936;-63
2022/01/31 15:10:55;;;;;;;;;;;6.90;99.90;;;;;;4984812;28;20395;-58